sensor_id;sensor_type;location;lat;lon;timestamp;P1;durP1;ratioP1;P2;durP2;ratioP2
6149;SDS011;3106;42.670;23.318;2024-03-22T00:01:52;39.07;;;15.20;;
6149;SDS011;3106;42.670;23.318;2024-03-22T00:04:23;41.43;;;16.13;;
6149;SDS011;3106;42.670;23.318;2024-03-22T00:06:49;36.47;;;15.80;;
6149;SDS011;3106;42.670;23.318;2024-03-22T00:09:17;45.37;;;19.13;;
6149;SDS011;3106;42.670;23.318;2024-03-22T00:11:43;38.50;;;17.13;;
6149;SDS011;3106;42.670;23.318;2024-03-22T00:14:11;35.60;;;16.00;;
6149;SDS011;3106;42.670;23.318;2024-03-22T00:16:37;45.20;;;18.10;;
6149;SDS011;3106;42.670;23.318;2024-03-22T00:19:04;25.57;;;12.37;;
6149;SDS011;3106;42.670;23.318;2024-03-22T00:21:30;24.93;;;9.67;;
6149;SDS011;3106;42.670;23.318;2024-03-22T00:23:57;29.93;;;11.10;;
6149;SDS011;3106;42.670;23.318;2024-03-22T00:26:24;40.23;;;17.50;;
6149;SDS011;3106;42.670;23.318;2024-03-22T00:28:51;25.90;;;11.20;;
6149;SDS011;3106;42.670;23.318;2024-03-22T00:31:17;28.97;;;12.13;;
6149;SDS011;3106;42.670;23.318;2024-03-22T00:33:44;32.37;;;12.40;;
6149;SDS011;3106;42.670;23.318;2024-03-22T00:36:10;27.33;;;11.70;;
6149;SDS011;3106;42.670;23.318;2024-03-22T00:38:37;28.20;;;11.10;;
6149;SDS011;3106;42.670;23.318;2024-03-22T00:41:03;19.13;;;9.23;;
6149;SDS011;3106;42.670;23.318;2024-03-22T00:43:32;21.20;;;10.77;;
6149;SDS011;3106;42.670;23.318;2024-03-22T00:45:58;35.73;;;13.80;;
6149;SDS011;3106;42.670;23.318;2024-03-22T00:48:26;34.93;;;14.17;;
6149;SDS011;3106;42.670;23.318;2024-03-22T00:50:52;33.00;;;13.73;;
6149;SDS011;3106;42.670;23.318;2024-03-22T00:53:22;29.20;;;13.90;;
6149;SDS011;3106;42.670;23.318;2024-03-22T00:55:47;40.80;;;14.30;;
6149;SDS011;3106;42.670;23.318;2024-03-22T00:58:17;39.20;;;17.17;;
6149;SDS011;3106;42.670;23.318;2024-03-22T01:00:45;50.70;;;17.17;;
6149;SDS011;3106;42.670;23.318;2024-03-22T01:03:12;36.37;;;16.27;;
6149;SDS011;3106;42.670;23.318;2024-03-22T01:05:39;32.83;;;15.10;;
6149;SDS011;3106;42.670;23.318;2024-03-22T01:08:07;39.50;;;16.17;;
6149;SDS011;3106;42.670;23.318;2024-03-22T01:10:33;38.23;;;14.80;;
6149;SDS011;3106;42.670;23.318;2024-03-22T01:13:01;38.33;;;16.50;;
6149;SDS011;3106;42.670;23.318;2024-03-22T01:15:28;48.73;;;16.50;;
6149;SDS011;3106;42.670;23.318;2024-03-22T01:17:57;43.73;;;16.73;;
6149;SDS011;3106;42.670;23.318;2024-03-22T01:20:25;31.93;;;15.47;;
6149;SDS011;3106;42.670;23.318;2024-03-22T01:22:52;32.07;;;15.10;;
6149;SDS011;3106;42.670;23.318;2024-03-22T01:25:19;29.10;;;13.30;;
6149;SDS011;3106;42.670;23.318;2024-03-22T01:28:00;24.33;;;11.80;;
6149;SDS011;3106;42.670;23.318;2024-03-22T01:30:30;25.70;;;11.87;;
6149;SDS011;3106;42.670;23.318;2024-03-22T01:32:55;24.90;;;12.43;;
6149;SDS011;3106;42.670;23.318;2024-03-22T01:35:25;24.43;;;11.17;;
6149;SDS011;3106;42.670;23.318;2024-03-22T01:37:51;22.53;;;10.90;;
6149;SDS011;3106;42.670;23.318;2024-03-22T01:40:18;29.27;;;11.60;;
6149;SDS011;3106;42.670;23.318;2024-03-22T01:42:43;24.20;;;10.37;;
6149;SDS011;3106;42.670;23.318;2024-03-22T01:45:10;26.13;;;10.90;;
6149;SDS011;3106;42.670;23.318;2024-03-22T01:47:39;19.53;;;10.13;;
6149;SDS011;3106;42.670;23.318;2024-03-22T01:50:09;33.23;;;11.43;;
6149;SDS011;3106;42.670;23.318;2024-03-22T01:52:37;27.87;;;10.90;;
6149;SDS011;3106;42.670;23.318;2024-03-22T01:55:07;25.10;;;10.47;;
6149;SDS011;3106;42.670;23.318;2024-03-22T01:57:33;29.93;;;11.63;;
6149;SDS011;3106;42.670;23.318;2024-03-22T02:00:00;27.70;;;11.23;;
6149;SDS011;3106;42.670;23.318;2024-03-22T02:02:25;22.23;;;10.90;;
6149;SDS011;3106;42.670;23.318;2024-03-22T02:04:52;27.73;;;11.40;;
6149;SDS011;3106;42.670;23.318;2024-03-22T02:07:20;22.90;;;11.00;;
6149;SDS011;3106;42.670;23.318;2024-03-22T02:09:46;32.50;;;12.30;;
6149;SDS011;3106;42.670;23.318;2024-03-22T02:12:13;21.63;;;10.30;;
6149;SDS011;3106;42.670;23.318;2024-03-22T02:14:41;22.67;;;10.67;;
6149;SDS011;3106;42.670;23.318;2024-03-22T02:17:07;24.73;;;11.10;;
6149;SDS011;3106;42.670;23.318;2024-03-22T02:19:33;29.23;;;11.47;;
6149;SDS011;3106;42.670;23.318;2024-03-22T02:22:00;30.60;;;11.20;;
6149;SDS011;3106;42.670;23.318;2024-03-22T02:24:28;24.00;;;10.60;;
6149;SDS011;3106;42.670;23.318;2024-03-22T02:26:54;25.70;;;11.13;;
6149;SDS011;3106;42.670;23.318;2024-03-22T02:29:21;25.00;;;11.17;;
6149;SDS011;3106;42.670;23.318;2024-03-22T02:31:47;33.00;;;10.40;;
6149;SDS011;3106;42.670;23.318;2024-03-22T02:34:14;28.23;;;10.97;;
6149;SDS011;3106;42.670;23.318;2024-03-22T02:36:39;27.10;;;11.10;;
6149;SDS011;3106;42.670;23.318;2024-03-22T02:39:08;29.47;;;12.10;;
6149;SDS011;3106;42.670;23.318;2024-03-22T02:41:36;22.13;;;10.80;;
6149;SDS011;3106;42.670;23.318;2024-03-22T02:44:03;24.30;;;11.10;;
6149;SDS011;3106;42.670;23.318;2024-03-22T02:46:29;21.17;;;10.00;;
6149;SDS011;3106;42.670;23.318;2024-03-22T02:48:55;28.90;;;12.43;;
6149;SDS011;3106;42.670;23.318;2024-03-22T02:51:22;24.10;;;11.50;;
6149;SDS011;3106;42.670;23.318;2024-03-22T02:53:48;30.33;;;12.77;;
6149;SDS011;3106;42.670;23.318;2024-03-22T02:56:14;30.97;;;13.90;;
6149;SDS011;3106;42.670;23.318;2024-03-22T02:58:43;32.53;;;13.27;;
6149;SDS011;3106;42.670;23.318;2024-03-22T03:01:09;33.97;;;14.00;;
6149;SDS011;3106;42.670;23.318;2024-03-22T03:03:36;30.87;;;12.93;;
6149;SDS011;3106;42.670;23.318;2024-03-22T03:06:02;32.23;;;12.50;;
6149;SDS011;3106;42.670;23.318;2024-03-22T03:08:29;40.23;;;12.70;;
6149;SDS011;3106;42.670;23.318;2024-03-22T03:10:54;35.43;;;13.13;;
6149;SDS011;3106;42.670;23.318;2024-03-22T03:13:21;28.70;;;13.30;;
6149;SDS011;3106;42.670;23.318;2024-03-22T03:15:48;30.83;;;12.90;;
6149;SDS011;3106;42.670;23.318;2024-03-22T03:18:18;30.97;;;13.70;;
6149;SDS011;3106;42.670;23.318;2024-03-22T03:20:44;37.63;;;14.13;;
6149;SDS011;3106;42.670;23.318;2024-03-22T03:23:11;32.23;;;14.93;;
6149;SDS011;3106;42.670;23.318;2024-03-22T03:25:39;40.80;;;16.23;;
6149;SDS011;3106;42.670;23.318;2024-03-22T03:28:09;31.27;;;15.33;;
6149;SDS011;3106;42.670;23.318;2024-03-22T03:30:34;38.80;;;16.00;;
6149;SDS011;3106;42.670;23.318;2024-03-22T03:33:03;45.97;;;16.07;;
6149;SDS011;3106;42.670;23.318;2024-03-22T03:35:28;50.90;;;17.00;;
6149;SDS011;3106;42.670;23.318;2024-03-22T03:37:55;39.83;;;17.07;;
6149;SDS011;3106;42.670;23.318;2024-03-22T03:40:21;37.07;;;16.00;;
6149;SDS011;3106;42.670;23.318;2024-03-22T03:42:49;43.60;;;18.23;;
6149;SDS011;3106;42.670;23.318;2024-03-22T03:45:15;40.80;;;15.37;;
6149;SDS011;3106;42.670;23.318;2024-03-22T03:47:42;42.10;;;16.37;;
6149;SDS011;3106;42.670;23.318;2024-03-22T03:50:09;35.80;;;14.50;;
6149;SDS011;3106;42.670;23.318;2024-03-22T03:52:36;33.67;;;13.97;;
6149;SDS011;3106;42.670;23.318;2024-03-22T03:55:01;30.97;;;13.63;;
6149;SDS011;3106;42.670;23.318;2024-03-22T03:57:28;42.63;;;14.03;;
6149;SDS011;3106;42.670;23.318;2024-03-22T03:59:54;30.20;;;13.77;;
6149;SDS011;3106;42.670;23.318;2024-03-22T04:02:21;35.50;;;15.47;;
6149;SDS011;3106;42.670;23.318;2024-03-22T04:04:51;28.13;;;13.87;;
6149;SDS011;3106;42.670;23.318;2024-03-22T04:07:21;37.93;;;14.80;;
6149;SDS011;3106;42.670;23.318;2024-03-22T04:09:48;30.30;;;14.00;;
6149;SDS011;3106;42.670;23.318;2024-03-22T04:12:17;30.83;;;13.37;;
6149;SDS011;3106;42.670;23.318;2024-03-22T04:14:46;36.40;;;14.00;;
6149;SDS011;3106;42.670;23.318;2024-03-22T04:17:14;33.10;;;12.33;;
6149;SDS011;3106;42.670;23.318;2024-03-22T04:19:44;25.60;;;12.07;;
6149;SDS011;3106;42.670;23.318;2024-03-22T04:22:12;28.20;;;12.03;;
6149;SDS011;3106;42.670;23.318;2024-03-22T04:24:42;31.70;;;9.70;;
6149;SDS011;3106;42.670;23.318;2024-03-22T04:27:09;20.17;;;9.80;;
6149;SDS011;3106;42.670;23.318;2024-03-22T04:29:38;16.57;;;9.37;;
6149;SDS011;3106;42.670;23.318;2024-03-22T04:32:06;22.27;;;10.03;;
6149;SDS011;3106;42.670;23.318;2024-03-22T04:34:32;25.00;;;10.73;;
6149;SDS011;3106;42.670;23.318;2024-03-22T04:37:06;33.00;;;10.13;;
6149;SDS011;3106;42.670;23.318;2024-03-22T04:39:36;25.93;;;9.20;;
6149;SDS011;3106;42.670;23.318;2024-03-22T04:42:07;19.83;;;8.43;;
6149;SDS011;3106;42.670;23.318;2024-03-22T04:44:34;18.10;;;8.90;;
6149;SDS011;3106;42.670;23.318;2024-03-22T04:47:00;29.63;;;8.43;;
6149;SDS011;3106;42.670;23.318;2024-03-22T04:49:27;21.00;;;8.83;;
6149;SDS011;3106;42.670;23.318;2024-03-22T04:51:54;19.70;;;7.77;;
6149;SDS011;3106;42.670;23.318;2024-03-22T04:54:23;17.40;;;8.20;;
6149;SDS011;3106;42.670;23.318;2024-03-22T04:56:50;20.77;;;8.30;;
6149;SDS011;3106;42.670;23.318;2024-03-22T04:59:19;18.40;;;7.60;;
6149;SDS011;3106;42.670;23.318;2024-03-22T05:01:46;18.63;;;8.80;;
6149;SDS011;3106;42.670;23.318;2024-03-22T05:04:14;24.00;;;9.07;;
6149;SDS011;3106;42.670;23.318;2024-03-22T05:06:39;21.97;;;9.70;;
6149;SDS011;3106;42.670;23.318;2024-03-22T05:09:07;28.00;;;10.20;;
6149;SDS011;3106;42.670;23.318;2024-03-22T05:11:35;20.20;;;9.80;;
6149;SDS011;3106;42.670;23.318;2024-03-22T05:14:03;23.53;;;10.50;;
6149;SDS011;3106;42.670;23.318;2024-03-22T05:16:33;28.87;;;11.07;;
6149;SDS011;3106;42.670;23.318;2024-03-22T05:19:02;22.70;;;11.50;;
6149;SDS011;3106;42.670;23.318;2024-03-22T05:21:31;27.00;;;11.63;;
6149;SDS011;3106;42.670;23.318;2024-03-22T05:23:57;14.00;;;8.27;;
6149;SDS011;3106;42.670;23.318;2024-03-22T05:26:24;12.20;;;7.20;;
6149;SDS011;3106;42.670;23.318;2024-03-22T05:28:51;23.60;;;7.03;;
6149;SDS011;3106;42.670;23.318;2024-03-22T05:31:17;17.10;;;8.27;;
6149;SDS011;3106;42.670;23.318;2024-03-22T05:33:47;14.50;;;8.07;;
6149;SDS011;3106;42.670;23.318;2024-03-22T05:36:13;25.13;;;10.77;;
6149;SDS011;3106;42.670;23.318;2024-03-22T05:38:40;28.93;;;12.27;;
6149;SDS011;3106;42.670;23.318;2024-03-22T05:41:06;25.50;;;11.97;;
6149;SDS011;3106;42.670;23.318;2024-03-22T05:43:33;43.90;;;14.17;;
6149;SDS011;3106;42.670;23.318;2024-03-22T05:45:59;30.63;;;12.10;;
6149;SDS011;3106;42.670;23.318;2024-03-22T05:48:27;41.93;;;21.30;;
6149;SDS011;3106;42.670;23.318;2024-03-22T05:50:55;49.03;;;21.07;;
6149;SDS011;3106;42.670;23.318;2024-03-22T05:53:22;29.20;;;12.17;;
6149;SDS011;3106;42.670;23.318;2024-03-22T05:55:49;26.10;;;10.93;;
6149;SDS011;3106;42.670;23.318;2024-03-22T05:58:18;23.00;;;9.90;;
6149;SDS011;3106;42.670;23.318;2024-03-22T06:00:46;24.50;;;10.93;;
6149;SDS011;3106;42.670;23.318;2024-03-22T06:03:14;27.83;;;10.83;;
6149;SDS011;3106;42.670;23.318;2024-03-22T06:05:41;29.03;;;10.90;;
6149;SDS011;3106;42.670;23.318;2024-03-22T06:08:12;41.90;;;13.97;;
6149;SDS011;3106;42.670;23.318;2024-03-22T06:10:44;24.33;;;10.50;;
6149;SDS011;3106;42.670;23.318;2024-03-22T06:13:12;25.93;;;10.67;;
6149;SDS011;3106;42.670;23.318;2024-03-22T06:15:42;32.50;;;10.27;;
6149;SDS011;3106;42.670;23.318;2024-03-22T06:18:10;31.10;;;10.90;;
6149;SDS011;3106;42.670;23.318;2024-03-22T06:20:37;29.47;;;10.80;;
6149;SDS011;3106;42.670;23.318;2024-03-22T06:23:08;21.83;;;9.93;;
6149;SDS011;3106;42.670;23.318;2024-03-22T06:25:37;21.40;;;9.90;;
6149;SDS011;3106;42.670;23.318;2024-03-22T06:28:03;23.97;;;10.47;;
6149;SDS011;3106;42.670;23.318;2024-03-22T06:30:30;25.60;;;10.97;;
6149;SDS011;3106;42.670;23.318;2024-03-22T06:32:57;23.00;;;10.13;;
6149;SDS011;3106;42.670;23.318;2024-03-22T06:35:24;26.67;;;10.07;;
6149;SDS011;3106;42.670;23.318;2024-03-22T06:37:50;22.73;;;11.00;;
6149;SDS011;3106;42.670;23.318;2024-03-22T06:40:19;20.00;;;10.67;;
6149;SDS011;3106;42.670;23.318;2024-03-22T06:42:45;18.10;;;9.67;;
6149;SDS011;3106;42.670;23.318;2024-03-22T06:45:14;26.43;;;11.00;;
6149;SDS011;3106;42.670;23.318;2024-03-22T06:47:41;20.50;;;9.90;;
6149;SDS011;3106;42.670;23.318;2024-03-22T06:50:08;28.30;;;11.10;;
6149;SDS011;3106;42.670;23.318;2024-03-22T06:52:35;28.33;;;11.80;;
6149;SDS011;3106;42.670;23.318;2024-03-22T06:55:03;38.10;;;15.30;;
6149;SDS011;3106;42.670;23.318;2024-03-22T06:57:31;22.27;;;11.30;;
6149;SDS011;3106;42.670;23.318;2024-03-22T07:00:03;27.23;;;12.30;;
6149;SDS011;3106;42.670;23.318;2024-03-22T07:02:30;55.13;;;25.43;;
6149;SDS011;3106;42.670;23.318;2024-03-22T07:04:57;28.23;;;13.00;;
6149;SDS011;3106;42.670;23.318;2024-03-22T07:07:23;43.87;;;12.63;;
6149;SDS011;3106;42.670;23.318;2024-03-22T07:09:49;33.60;;;12.47;;
6149;SDS011;3106;42.670;23.318;2024-03-22T07:12:16;27.00;;;12.03;;
6149;SDS011;3106;42.670;23.318;2024-03-22T07:14:46;30.33;;;11.03;;
6149;SDS011;3106;42.670;23.318;2024-03-22T07:17:14;34.33;;;12.37;;
6149;SDS011;3106;42.670;23.318;2024-03-22T07:19:41;25.53;;;11.83;;
6149;SDS011;3106;42.670;23.318;2024-03-22T07:22:10;29.47;;;12.47;;
6149;SDS011;3106;42.670;23.318;2024-03-22T07:24:37;34.60;;;12.53;;
6149;SDS011;3106;42.670;23.318;2024-03-22T07:27:04;30.93;;;13.67;;
6149;SDS011;3106;42.670;23.318;2024-03-22T07:29:32;48.73;;;15.33;;
6149;SDS011;3106;42.670;23.318;2024-03-22T07:32:00;31.83;;;14.23;;
6149;SDS011;3106;42.670;23.318;2024-03-22T07:34:28;30.63;;;13.90;;
6149;SDS011;3106;42.670;23.318;2024-03-22T07:36:54;60.47;;;15.80;;
6149;SDS011;3106;42.670;23.318;2024-03-22T07:39:22;30.87;;;11.80;;
6149;SDS011;3106;42.670;23.318;2024-03-22T07:41:48;24.40;;;10.00;;
6149;SDS011;3106;42.670;23.318;2024-03-22T07:44:15;17.27;;;7.00;;
6149;SDS011;3106;42.670;23.318;2024-03-22T07:46:45;11.70;;;7.47;;
6149;SDS011;3106;42.670;23.318;2024-03-22T07:49:13;26.70;;;8.47;;
6149;SDS011;3106;42.670;23.318;2024-03-22T07:51:39;30.47;;;6.83;;
6149;SDS011;3106;42.670;23.318;2024-03-22T07:54:06;9.83;;;6.13;;
6149;SDS011;3106;42.670;23.318;2024-03-22T07:56:32;13.97;;;6.63;;
6149;SDS011;3106;42.670;23.318;2024-03-22T07:58:59;11.77;;;5.80;;
6149;SDS011;3106;42.670;23.318;2024-03-22T08:01:26;14.27;;;6.40;;
6149;SDS011;3106;42.670;23.318;2024-03-22T08:03:55;18.93;;;5.70;;
6149;SDS011;3106;42.670;23.318;2024-03-22T08:06:24;13.80;;;5.43;;
6149;SDS011;3106;42.670;23.318;2024-03-22T08:08:53;10.67;;;4.90;;
6149;SDS011;3106;42.670;23.318;2024-03-22T08:11:19;9.23;;;5.57;;
6149;SDS011;3106;42.670;23.318;2024-03-22T08:13:47;8.97;;;4.90;;
6149;SDS011;3106;42.670;23.318;2024-03-22T08:16:14;16.00;;;5.70;;
6149;SDS011;3106;42.670;23.318;2024-03-22T08:18:41;15.93;;;5.73;;
6149;SDS011;3106;42.670;23.318;2024-03-22T08:21:07;10.00;;;5.67;;
6149;SDS011;3106;42.670;23.318;2024-03-22T08:23:36;11.47;;;5.30;;
6149;SDS011;3106;42.670;23.318;2024-03-22T08:26:02;11.73;;;5.87;;
6149;SDS011;3106;42.670;23.318;2024-03-22T08:28:28;12.57;;;5.70;;
6149;SDS011;3106;42.670;23.318;2024-03-22T08:30:54;11.23;;;6.57;;
6149;SDS011;3106;42.670;23.318;2024-03-22T08:33:21;9.90;;;5.70;;
6149;SDS011;3106;42.670;23.318;2024-03-22T08:35:47;26.67;;;12.70;;
6149;SDS011;3106;42.670;23.318;2024-03-22T08:38:14;9.80;;;5.90;;
6149;SDS011;3106;42.670;23.318;2024-03-22T08:40:42;14.47;;;7.63;;
6149;SDS011;3106;42.670;23.318;2024-03-22T08:43:09;7.33;;;4.90;;
6149;SDS011;3106;42.670;23.318;2024-03-22T08:45:35;13.70;;;5.00;;
6149;SDS011;3106;42.670;23.318;2024-03-22T08:48:06;8.23;;;4.90;;
6149;SDS011;3106;42.670;23.318;2024-03-22T08:50:33;10.00;;;5.60;;
6149;SDS011;3106;42.670;23.318;2024-03-22T08:53:01;16.13;;;4.53;;
6149;SDS011;3106;42.670;23.318;2024-03-22T08:55:32;11.20;;;5.97;;
6149;SDS011;3106;42.670;23.318;2024-03-22T08:58:01;8.83;;;5.20;;
6149;SDS011;3106;42.670;23.318;2024-03-22T09:00:29;10.93;;;4.70;;
6149;SDS011;3106;42.670;23.318;2024-03-22T09:02:58;6.20;;;4.13;;
6149;SDS011;3106;42.670;23.318;2024-03-22T09:05:25;11.30;;;7.00;;
6149;SDS011;3106;42.670;23.318;2024-03-22T09:07:54;8.20;;;4.40;;
6149;SDS011;3106;42.670;23.318;2024-03-22T09:10:20;6.97;;;4.60;;
6149;SDS011;3106;42.670;23.318;2024-03-22T09:12:49;7.70;;;4.47;;
6149;SDS011;3106;42.670;23.318;2024-03-22T09:15:16;5.80;;;3.60;;
6149;SDS011;3106;42.670;23.318;2024-03-22T09:17:43;9.23;;;5.90;;
6149;SDS011;3106;42.670;23.318;2024-03-22T09:20:41;8.33;;;5.17;;
6149;SDS011;3106;42.670;23.318;2024-03-22T09:23:08;8.43;;;5.10;;
6149;SDS011;3106;42.670;23.318;2024-03-22T09:25:34;13.13;;;4.90;;
6149;SDS011;3106;42.670;23.318;2024-03-22T09:28:04;6.90;;;3.90;;
6149;SDS011;3106;42.670;23.318;2024-03-22T09:30:32;6.93;;;3.80;;
6149;SDS011;3106;42.670;23.318;2024-03-22T09:33:04;4.87;;;3.73;;
6149;SDS011;3106;42.670;23.318;2024-03-22T09:35:32;10.07;;;4.90;;
6149;SDS011;3106;42.670;23.318;2024-03-22T09:38:04;10.90;;;4.47;;
6149;SDS011;3106;42.670;23.318;2024-03-22T09:40:30;5.80;;;4.00;;
6149;SDS011;3106;42.670;23.318;2024-03-22T09:43:01;9.57;;;4.40;;
6149;SDS011;3106;42.670;23.318;2024-03-22T09:45:28;15.83;;;3.77;;
6149;SDS011;3106;42.670;23.318;2024-03-22T09:47:59;9.37;;;4.50;;
6149;SDS011;3106;42.670;23.318;2024-03-22T09:50:27;9.83;;;5.00;;
6149;SDS011;3106;42.670;23.318;2024-03-22T09:52:55;8.90;;;4.97;;
6149;SDS011;3106;42.670;23.318;2024-03-22T09:55:22;11.40;;;5.30;;
6149;SDS011;3106;42.670;23.318;2024-03-22T09:57:53;6.33;;;3.93;;
6149;SDS011;3106;42.670;23.318;2024-03-22T10:00:22;9.40;;;4.87;;
6149;SDS011;3106;42.670;23.318;2024-03-22T10:02:52;10.03;;;4.70;;
6149;SDS011;3106;42.670;23.318;2024-03-22T10:05:19;7.63;;;4.63;;
6149;SDS011;3106;42.670;23.318;2024-03-22T10:07:47;8.73;;;5.00;;
6149;SDS011;3106;42.670;23.318;2024-03-22T10:10:13;6.57;;;4.23;;
6149;SDS011;3106;42.670;23.318;2024-03-22T10:12:40;7.93;;;4.00;;
6149;SDS011;3106;42.670;23.318;2024-03-22T10:15:08;16.80;;;4.80;;
6149;SDS011;3106;42.670;23.318;2024-03-22T10:17:36;7.80;;;4.67;;
6149;SDS011;3106;42.670;23.318;2024-03-22T10:20:07;9.00;;;5.00;;
6149;SDS011;3106;42.670;23.318;2024-03-22T10:22:41;6.63;;;4.30;;
6149;SDS011;3106;42.670;23.318;2024-03-22T10:25:07;7.33;;;4.63;;
6149;SDS011;3106;42.670;23.318;2024-03-22T10:27:37;7.03;;;4.17;;
6149;SDS011;3106;42.670;23.318;2024-03-22T10:30:05;5.90;;;3.80;;
6149;SDS011;3106;42.670;23.318;2024-03-22T10:32:36;7.87;;;4.30;;
6149;SDS011;3106;42.670;23.318;2024-03-22T10:35:05;9.70;;;4.10;;
6149;SDS011;3106;42.670;23.318;2024-03-22T10:37:38;16.40;;;4.80;;
6149;SDS011;3106;42.670;23.318;2024-03-22T10:40:05;6.17;;;4.10;;
6149;SDS011;3106;42.670;23.318;2024-03-22T10:42:34;8.17;;;4.67;;
6149;SDS011;3106;42.670;23.318;2024-03-22T10:45:00;36.80;;;5.50;;
6149;SDS011;3106;42.670;23.318;2024-03-22T10:47:28;9.10;;;3.80;;
6149;SDS011;3106;42.670;23.318;2024-03-22T10:49:57;9.50;;;5.00;;
6149;SDS011;3106;42.670;23.318;2024-03-22T10:52:34;11.73;;;6.30;;
6149;SDS011;3106;42.670;23.318;2024-03-22T10:55:03;23.80;;;5.00;;
6149;SDS011;3106;42.670;23.318;2024-03-22T10:57:34;7.10;;;4.93;;
6149;SDS011;3106;42.670;23.318;2024-03-22T11:00:03;8.20;;;3.57;;
6149;SDS011;3106;42.670;23.318;2024-03-22T11:02:35;5.83;;;4.00;;
6149;SDS011;3106;42.670;23.318;2024-03-22T11:05:01;9.57;;;5.00;;
6149;SDS011;3106;42.670;23.318;2024-03-22T11:07:29;6.57;;;4.40;;
6149;SDS011;3106;42.670;23.318;2024-03-22T11:09:57;10.83;;;3.83;;
6149;SDS011;3106;42.670;23.318;2024-03-22T11:12:28;7.17;;;5.10;;
6149;SDS011;3106;42.670;23.318;2024-03-22T11:14:59;11.80;;;5.00;;
6149;SDS011;3106;42.670;23.318;2024-03-22T11:17:29;10.87;;;4.67;;
6149;SDS011;3106;42.670;23.318;2024-03-22T11:19:55;10.17;;;4.30;;
6149;SDS011;3106;42.670;23.318;2024-03-22T11:22:22;13.63;;;4.60;;
6149;SDS011;3106;42.670;23.318;2024-03-22T11:25:01;7.70;;;4.50;;
6149;SDS011;3106;42.670;23.318;2024-03-22T11:27:28;7.07;;;4.27;;
6149;SDS011;3106;42.670;23.318;2024-03-22T11:29:55;9.73;;;6.23;;
6149;SDS011;3106;42.670;23.318;2024-03-22T11:32:24;7.40;;;3.80;;
6149;SDS011;3106;42.670;23.318;2024-03-22T11:34:52;12.00;;;6.67;;
6149;SDS011;3106;42.670;23.318;2024-03-22T11:37:20;12.33;;;5.77;;
6149;SDS011;3106;42.670;23.318;2024-03-22T11:39:46;21.83;;;4.97;;
6149;SDS011;3106;42.670;23.318;2024-03-22T11:42:14;11.73;;;5.10;;
6149;SDS011;3106;42.670;23.318;2024-03-22T11:44:41;8.20;;;3.90;;
6149;SDS011;3106;42.670;23.318;2024-03-22T11:47:08;10.83;;;4.43;;
6149;SDS011;3106;42.670;23.318;2024-03-22T11:49:34;7.00;;;3.63;;
6149;SDS011;3106;42.670;23.318;2024-03-22T11:52:02;9.27;;;6.10;;
6149;SDS011;3106;42.670;23.318;2024-03-22T11:54:36;12.33;;;7.97;;
6149;SDS011;3106;42.670;23.318;2024-03-22T11:57:04;13.20;;;8.20;;
6149;SDS011;3106;42.670;23.318;2024-03-22T11:59:36;11.97;;;5.33;;
6149;SDS011;3106;42.670;23.318;2024-03-22T12:02:08;10.30;;;4.30;;
6149;SDS011;3106;42.670;23.318;2024-03-22T12:04:35;9.67;;;4.67;;
6149;SDS011;3106;42.670;23.318;2024-03-22T12:07:03;8.00;;;4.10;;
6149;SDS011;3106;42.670;23.318;2024-03-22T12:09:30;7.23;;;3.63;;
6149;SDS011;3106;42.670;23.318;2024-03-22T12:11:59;4.67;;;3.60;;
6149;SDS011;3106;42.670;23.318;2024-03-22T12:14:25;9.60;;;4.33;;
6149;SDS011;3106;42.670;23.318;2024-03-22T12:16:53;13.33;;;4.13;;
6149;SDS011;3106;42.670;23.318;2024-03-22T12:19:19;5.67;;;3.87;;
6149;SDS011;3106;42.670;23.318;2024-03-22T12:21:46;7.70;;;4.53;;
6149;SDS011;3106;42.670;23.318;2024-03-22T12:24:15;12.00;;;4.47;;
6149;SDS011;3106;42.670;23.318;2024-03-22T12:26:42;7.47;;;3.90;;
6149;SDS011;3106;42.670;23.318;2024-03-22T12:29:09;9.03;;;3.87;;
6149;SDS011;3106;42.670;23.318;2024-03-22T12:31:43;7.20;;;3.93;;
6149;SDS011;3106;42.670;23.318;2024-03-22T12:34:12;13.73;;;3.70;;
6149;SDS011;3106;42.670;23.318;2024-03-22T12:36:42;6.40;;;3.90;;
6149;SDS011;3106;42.670;23.318;2024-03-22T12:39:08;4.43;;;3.37;;
6149;SDS011;3106;42.670;23.318;2024-03-22T12:41:35;5.63;;;3.53;;
6149;SDS011;3106;42.670;23.318;2024-03-22T12:44:03;12.33;;;6.33;;
6149;SDS011;3106;42.670;23.318;2024-03-22T12:46:32;9.97;;;6.10;;
6149;SDS011;3106;42.670;23.318;2024-03-22T12:48:58;8.57;;;4.33;;
6149;SDS011;3106;42.670;23.318;2024-03-22T12:51:26;11.57;;;5.53;;
6149;SDS011;3106;42.670;23.318;2024-03-22T12:53:52;8.87;;;4.50;;
6149;SDS011;3106;42.670;23.318;2024-03-22T12:56:20;7.67;;;4.20;;
6149;SDS011;3106;42.670;23.318;2024-03-22T12:58:46;11.80;;;4.17;;
6149;SDS011;3106;42.670;23.318;2024-03-22T13:01:16;7.83;;;4.20;;
6149;SDS011;3106;42.670;23.318;2024-03-22T13:03:41;7.63;;;3.80;;
6149;SDS011;3106;42.670;23.318;2024-03-22T13:06:08;6.50;;;3.80;;
6149;SDS011;3106;42.670;23.318;2024-03-22T13:08:37;13.27;;;4.60;;
6149;SDS011;3106;42.670;23.318;2024-03-22T13:11:05;6.57;;;3.83;;
6149;SDS011;3106;42.670;23.318;2024-03-22T13:13:33;7.10;;;4.00;;
6149;SDS011;3106;42.670;23.318;2024-03-22T13:16:03;14.93;;;4.97;;
6149;SDS011;3106;42.670;23.318;2024-03-22T13:18:29;10.73;;;4.57;;
6149;SDS011;3106;42.670;23.318;2024-03-22T13:20:56;5.77;;;3.60;;
6149;SDS011;3106;42.670;23.318;2024-03-22T13:23:22;7.43;;;3.80;;
6149;SDS011;3106;42.670;23.318;2024-03-22T13:25:50;6.17;;;4.03;;
6149;SDS011;3106;42.670;23.318;2024-03-22T13:28:17;7.43;;;3.93;;
6149;SDS011;3106;42.670;23.318;2024-03-22T13:30:47;9.77;;;4.30;;
6149;SDS011;3106;42.670;23.318;2024-03-22T13:33:19;5.93;;;3.70;;
6149;SDS011;3106;42.670;23.318;2024-03-22T13:35:55;11.93;;;5.30;;
6149;SDS011;3106;42.670;23.318;2024-03-22T13:38:21;28.43;;;7.63;;
6149;SDS011;3106;42.670;23.318;2024-03-22T13:41:04;33.83;;;6.23;;
6149;SDS011;3106;42.670;23.318;2024-03-22T13:43:31;5.97;;;3.90;;
6149;SDS011;3106;42.670;23.318;2024-03-22T13:46:00;12.43;;;4.27;;
6149;SDS011;3106;42.670;23.318;2024-03-22T13:48:27;13.13;;;4.23;;
6149;SDS011;3106;42.670;23.318;2024-03-22T13:50:53;9.43;;;4.30;;
6149;SDS011;3106;42.670;23.318;2024-03-22T13:53:20;9.53;;;3.73;;
6149;SDS011;3106;42.670;23.318;2024-03-22T13:55:48;35.87;;;5.30;;
6149;SDS011;3106;42.670;23.318;2024-03-22T13:58:15;5.23;;;3.83;;
6149;SDS011;3106;42.670;23.318;2024-03-22T14:00:42;7.13;;;3.80;;
6149;SDS011;3106;42.670;23.318;2024-03-22T14:03:08;7.90;;;4.70;;
6149;SDS011;3106;42.670;23.318;2024-03-22T14:05:35;30.37;;;4.60;;
6149;SDS011;3106;42.670;23.318;2024-03-22T14:08:01;28.13;;;5.60;;
6149;SDS011;3106;42.670;23.318;2024-03-22T14:10:28;13.43;;;5.80;;
6149;SDS011;3106;42.670;23.318;2024-03-22T14:12:56;12.03;;;4.83;;
6149;SDS011;3106;42.670;23.318;2024-03-22T14:15:24;8.40;;;4.40;;
6149;SDS011;3106;42.670;23.318;2024-03-22T14:17:52;9.73;;;4.63;;
6149;SDS011;3106;42.670;23.318;2024-03-22T14:20:22;16.30;;;4.63;;
6149;SDS011;3106;42.670;23.318;2024-03-22T14:22:49;18.07;;;4.53;;
6149;SDS011;3106;42.670;23.318;2024-03-22T14:25:16;24.90;;;5.07;;
6149;SDS011;3106;42.670;23.318;2024-03-22T14:27:43;10.60;;;4.43;;
6149;SDS011;3106;42.670;23.318;2024-03-22T14:30:11;15.03;;;4.30;;
6149;SDS011;3106;42.670;23.318;2024-03-22T14:32:40;11.10;;;4.33;;
6149;SDS011;3106;42.670;23.318;2024-03-22T14:35:07;4.77;;;3.53;;
6149;SDS011;3106;42.670;23.318;2024-03-22T14:37:35;5.97;;;3.53;;
6149;SDS011;3106;42.670;23.318;2024-03-22T14:40:02;11.40;;;3.60;;
6149;SDS011;3106;42.670;23.318;2024-03-22T14:42:30;11.53;;;3.87;;
6149;SDS011;3106;42.670;23.318;2024-03-22T14:44:57;11.20;;;4.40;;
6149;SDS011;3106;42.670;23.318;2024-03-22T14:47:24;11.27;;;3.83;;
6149;SDS011;3106;42.670;23.318;2024-03-22T14:49:57;13.60;;;4.87;;